KBYI/BYI METAR and TAF weather

Enter ICAO airport designator
Station Type Date Time Source
KBYI METAR 2019/12/08 13:53 UTC NOAA

KBYI 081353Z AUTO 26007KT 10SM SCT043 BKN075 04/01 A2984 RMK AO2 SLP100 T00440006


Station Type Date Time Source
KBYI Decoded METAR 2019/12/08 13:53 UTC NOAA

BURLEY MUNICIPAL AIRPORT, ID, United States (KBYI) 42-33N 113-46W 1264M
Dec 08, 2019 - 08:53 AM EST / 2019.12.08 1353 UTC
Wind: from the W (260 degrees) at 8 MPH (7 KT):0
Visibility: 10 mile(s):0
Sky conditions: mostly cloudy
Temperature: 39.9 F (4.4 C)
Dew Point: 33.1 F (0.6 C)
Relative Humidity: 76%
Pressure (altimeter): 29.84 in. Hg (1010 hPa)
ob: KBYI 081353Z AUTO 26007KT 10SM SCT043 BKN075 04/01 A2984 RMK AO2 SLP100 T00440006
cycle: 14

Station Type Date Time Source
KBYI TAF 2019/12/08 13:09 UTC NOAA

TAF
AMD KBYI 081306Z 0813/0912 23010KT P6SM VCSH OVC040
FM081500 26012G22KT P6SM VCSH SCT020 BKN030
FM090300 26008KT P6SM SCT050

Example: see airport list